createdAt,value
2022-11-06T00:00:24.561Z,10.13
2022-11-06T00:05:45.237Z,10.12
2022-11-06T00:10:49.125Z,10.00
2022-11-06T00:15:52.182Z,10.02
2022-11-06T00:20:54.705Z,10.04
2022-11-06T00:25:58.581Z,10.03
2022-11-06T00:31:05.209Z,9.98
2022-11-06T00:36:15.358Z,10.16
2022-11-06T00:41:19.952Z,10.06
2022-11-06T00:46:23.275Z,10.06
2022-11-06T00:51:28.065Z,9.90
2022-11-06T00:56:33.470Z,9.82
2022-11-06T01:01:37.814Z,9.82
2022-11-06T01:06:41.974Z,9.77
2022-11-06T01:17:11.117Z,9.73
2022-11-06T01:22:13.674Z,9.85
2022-11-06T01:27:26.448Z,9.68
2022-11-06T01:32:29.467Z,9.80
2022-11-06T01:37:32.450Z,10.00
2022-11-06T01:42:36.325Z,9.93
2022-11-06T01:47:39.001Z,10.04
2022-11-06T01:52:42.807Z,9.95
2022-11-06T01:57:48.385Z,10.00
2022-11-06T02:02:51.837Z,9.96
2022-11-06T02:07:56.671Z,10.01
2022-11-06T02:13:13.869Z,9.79
2022-11-06T02:18:29.345Z,10.01
2022-11-06T02:23:46.595Z,9.96
2022-11-06T02:28:55.252Z,10.02
2022-11-06T02:34:02.205Z,10.05
2022-11-06T02:39:11.039Z,9.97
2022-11-06T02:44:18.921Z,10.18
2022-11-06T02:49:27.093Z,10.24
2022-11-06T02:54:33.094Z,10.12
2022-11-06T02:59:46.097Z,9.94
2022-11-06T03:04:54.377Z,10.21
2022-11-06T03:09:57.426Z,10.22
2022-11-06T03:15:07.540Z,10.16
2022-11-06T03:20:18.774Z,10.15
2022-11-06T03:25:25.107Z,10.33
2022-11-06T03:30:29.741Z,10.29
2022-11-06T03:35:39.622Z,10.19
2022-11-06T03:40:45.919Z,9.95
2022-11-06T03:45:53.585Z,10.35
2022-11-06T03:51:00.806Z,10.45
2022-11-06T03:56:08.788Z,10.28
2022-11-06T04:01:15.543Z,10.31
2022-11-06T04:06:24.759Z,10.30
2022-11-06T04:11:48.421Z,10.27
2022-11-06T04:16:55.988Z,11.30
2022-11-06T04:22:13.833Z,10.69
2022-11-06T04:27:28.244Z,10.57
2022-11-06T04:32:41.587Z,10.37
2022-11-06T04:37:48.272Z,10.25
2022-11-06T04:42:57.535Z,10.26
2022-11-06T04:48:02.889Z,10.26
2022-11-06T04:53:09.237Z,10.21
2022-11-06T04:58:12.334Z,10.23
2022-11-06T05:03:17.906Z,10.24
2022-11-06T05:08:21.963Z,10.26
2022-11-06T05:13:24.493Z,10.15
2022-11-06T05:18:29.083Z,10.11
2022-11-06T05:23:31.657Z,10.04
2022-11-06T05:28:34.813Z,10.08
2022-11-06T05:33:38.751Z,10.01
2022-11-06T05:38:41.288Z,9.89
2022-11-06T05:43:44.107Z,9.66
2022-11-06T05:48:47.980Z,9.86
2022-11-06T05:53:50.498Z,9.74
2022-11-06T05:58:53.107Z,9.66
2022-11-06T06:03:57.141Z,9.43
2022-11-06T06:08:59.661Z,9.65
2022-11-06T06:14:02.345Z,9.78
2022-11-06T06:19:06.258Z,9.69
2022-11-06T06:24:09.059Z,9.64
2022-11-06T06:29:11.578Z,9.65
2022-11-06T06:34:15.427Z,9.45
2022-11-06T06:39:19.219Z,9.72
2022-11-06T06:44:21.766Z,9.64
2022-11-06T06:49:25.650Z,9.49
2022-11-06T06:54:28.240Z,9.80
2022-11-06T06:59:31.513Z,9.74
2022-11-06T07:04:35.402Z,9.74
2022-11-06T07:09:38.275Z,9.78
2022-11-06T07:14:40.813Z,10.01
2022-11-06T07:19:44.750Z,10.01
2022-11-06T07:24:47.287Z,9.96
2022-11-06T07:29:49.824Z,9.96
2022-11-06T07:34:53.757Z,10.11
2022-11-06T07:39:56.375Z,10.03
2022-11-06T07:44:59.018Z,10.30
2022-11-06T07:50:03.116Z,10.45
2022-11-06T07:55:06.809Z,10.40
2022-11-06T08:00:10.449Z,10.53
2022-11-06T08:05:17.413Z,10.58
2022-11-06T08:10:19.942Z,10.54
2022-11-06T08:15:22.506Z,10.59
2022-11-06T08:20:26.425Z,10.64
2022-11-06T08:25:30.428Z,10.67
2022-11-06T08:30:33.562Z,10.78
2022-11-06T08:35:38.183Z,10.36
2022-11-06T08:40:40.819Z,11.02
2022-11-06T08:45:44.225Z,10.88
2022-11-06T08:50:48.150Z,11.06
2022-11-06T08:55:50.782Z,10.93
2022-11-06T09:00:53.390Z,11.20
2022-11-06T09:05:57.489Z,11.12
2022-11-06T09:11:00.610Z,11.34
2022-11-06T09:16:03.160Z,11.51
2022-11-06T09:21:07.139Z,11.50
2022-11-06T09:26:09.764Z,11.53
2022-11-06T09:31:12.897Z,11.47
2022-11-06T09:36:16.805Z,11.58
2022-11-06T09:41:27.024Z,11.60
2022-11-06T09:46:32.991Z,11.60
2022-11-06T09:51:42.977Z,12.27
2022-11-06T09:56:49.835Z,12.13
2022-11-06T10:01:57.398Z,12.19
2022-11-06T10:07:01.783Z,12.27
2022-11-06T10:12:14.527Z,12.35
2022-11-06T10:17:31.344Z,12.44
2022-11-06T10:22:40.462Z,12.52
2022-11-06T10:27:52.027Z,12.56
2022-11-06T10:33:17.496Z,12.69
2022-11-06T10:38:25.281Z,12.77
2022-11-06T10:43:37.479Z,12.58
2022-11-06T10:48:47.837Z,11.58
2022-11-06T10:54:05.941Z,12.39
2022-11-06T10:59:17.700Z,12.52
2022-11-06T11:04:30.653Z,12.50
2022-11-06T11:09:37.846Z,12.84
2022-11-06T11:14:45.079Z,12.70
2022-11-06T11:19:48.089Z,12.36
2022-11-06T11:25:03.998Z,13.47
2022-11-06T11:30:22.688Z,13.67
2022-11-06T11:35:28.494Z,13.68
2022-11-06T11:40:36.387Z,13.45
2022-11-06T11:45:40.534Z,13.22
2022-11-06T11:50:43.126Z,13.08
2022-11-06T11:55:48.902Z,13.23
2022-11-06T12:00:56.675Z,13.16
2022-11-06T12:06:08.229Z,13.24
2022-11-06T12:11:15.621Z,13.35
2022-11-06T12:16:21.400Z,13.38
2022-11-06T12:21:28.859Z,13.46
2022-11-06T12:26:37.636Z,13.38
2022-11-06T12:31:47.798Z,13.34
2022-11-06T12:37:02.819Z,13.35
2022-11-06T12:42:12.098Z,13.25
2022-11-06T12:47:30.349Z,13.24
2022-11-06T12:52:51.006Z,13.36
2022-11-06T12:58:06.349Z,13.26
2022-11-06T13:03:33.945Z,13.19
2022-11-06T13:08:45.253Z,13.04
2022-11-06T13:13:57.350Z,13.18
2022-11-06T13:19:07.652Z,13.23
2022-11-06T13:24:16.236Z,13.19
2022-11-06T13:29:21.977Z,13.38
2022-11-06T13:34:30.325Z,13.66
2022-11-06T13:39:36.081Z,13.51
2022-11-06T13:44:38.962Z,13.31
2022-11-06T13:49:53.040Z,12.62
2022-11-06T13:55:09.609Z,13.10
2022-11-06T14:00:20.414Z,13.10
2022-11-06T14:05:51.466Z,13.04
2022-11-06T14:11:00.778Z,13.02
2022-11-06T14:16:08.189Z,12.89
2022-11-06T14:21:50.535Z,13.00
2022-11-06T14:26:55.612Z,13.06
2022-11-06T14:32:03.219Z,12.95
2022-11-06T14:37:39.680Z,12.84
2022-11-06T14:42:46.772Z,12.72
2022-11-06T14:47:54.262Z,12.76
2022-11-06T14:53:01.155Z,12.70
2022-11-06T14:58:18.183Z,12.69
2022-11-06T15:03:27.522Z,12.04
2022-11-06T15:09:01.581Z,12.67
2022-11-06T15:14:37.619Z,12.63
2022-11-06T15:19:44.539Z,12.55
2022-11-06T15:24:52.590Z,12.25
2022-11-06T15:29:59.324Z,12.46
2022-11-06T15:35:07.999Z,12.17
2022-11-06T15:40:23.690Z,12.29
2022-11-06T15:45:28.661Z,12.07
2022-11-06T15:50:33.891Z,11.97
2022-11-06T15:55:39.592Z,11.92
2022-11-06T16:00:42.488Z,11.52
2022-11-06T16:05:48.349Z,11.82
2022-11-06T16:10:51.690Z,11.77
2022-11-06T16:15:57.159Z,11.53
2022-11-06T16:21:10.409Z,11.55
2022-11-06T16:26:16.123Z,11.49
2022-11-06T16:31:20.275Z,11.22
2022-11-06T16:36:25.088Z,11.51
2022-11-06T16:42:04.728Z,11.42
2022-11-06T16:47:18.327Z,11.42
2022-11-06T16:52:26.348Z,11.34
2022-11-06T16:57:33.267Z,11.24
2022-11-06T17:02:38.816Z,11.24
2022-11-06T17:07:42.457Z,11.28
2022-11-06T17:12:46.379Z,11.23
2022-11-06T17:17:50.389Z,11.24
2022-11-06T17:22:52.956Z,11.23
2022-11-06T17:27:56.899Z,11.30
2022-11-06T17:32:59.637Z,11.08
2022-11-06T17:38:07.189Z,11.08
2022-11-06T17:43:12.678Z,11.04
2022-11-06T17:48:15.552Z,10.95
2022-11-06T17:53:18.233Z,11.02
2022-11-06T17:58:22.107Z,11.02
2022-11-06T18:03:24.875Z,11.11
2022-11-06T18:08:27.640Z,11.11
2022-11-06T18:13:32.710Z,11.16
2022-11-06T18:18:35.312Z,10.99
2022-11-06T18:23:38.246Z,11.11
2022-11-06T18:28:42.452Z,11.03
2022-11-06T18:33:45.649Z,11.00
2022-11-06T18:38:48.308Z,11.07
2022-11-06T18:43:56.896Z,11.07
2022-11-06T18:49:00.075Z,11.06
2022-11-06T18:54:05.815Z,11.10
2022-11-06T18:59:14.601Z,11.11
2022-11-06T19:04:17.685Z,11.15
2022-11-06T19:09:20.365Z,11.21
2022-11-06T19:14:24.654Z,11.22
2022-11-06T19:19:27.271Z,11.11
2022-11-06T19:24:29.925Z,11.04
2022-11-06T19:29:33.991Z,11.07
2022-11-06T19:34:39.148Z,11.12
2022-11-06T19:39:41.964Z,11.06
2022-11-06T19:44:46.014Z,11.14
2022-11-06T19:49:48.590Z,11.19
2022-11-06T19:54:51.487Z,11.20
2022-11-06T20:00:16.255Z,11.20
2022-11-06T20:05:19.266Z,11.14
2022-11-06T20:10:21.802Z,11.16
2022-11-06T20:15:25.770Z,11.10
2022-11-06T20:20:33.229Z,11.22
2022-11-06T20:25:38.546Z,10.98
2022-11-06T20:30:43.401Z,11.12
2022-11-06T20:35:48.042Z,11.42
2022-11-06T20:40:55.703Z,11.65
2022-11-06T20:46:01.451Z,11.54
2022-11-06T20:51:06.439Z,11.54
2022-11-06T20:56:12.168Z,11.38
2022-11-06T21:01:19.632Z,11.62
2022-11-06T21:06:24.214Z,11.66
2022-11-06T21:11:28.366Z,11.71
2022-11-06T21:16:35.164Z,11.75
2022-11-06T21:21:38.269Z,11.77
2022-11-06T21:26:41.209Z,11.84
2022-11-06T21:31:49.172Z,11.92
2022-11-06T21:36:52.023Z,11.85
2022-11-06T21:41:54.549Z,11.87
2022-11-06T21:46:58.534Z,11.80
2022-11-06T21:52:26.459Z,11.89
2022-11-06T21:57:31.558Z,11.92
2022-11-06T22:02:35.580Z,11.99
2022-11-06T22:07:38.570Z,11.97
2022-11-06T22:12:41.283Z,12.01
2022-11-06T22:17:45.429Z,11.98
2022-11-06T22:22:48.059Z,11.49
2022-11-06T22:27:52.615Z,12.05
2022-11-06T22:32:56.541Z,12.00
2022-11-06T22:37:59.075Z,12.00
2022-11-06T22:43:01.693Z,12.05
2022-11-06T22:48:06.189Z,12.05
2022-11-06T22:53:14.635Z,12.13
2022-11-06T22:58:17.615Z,12.10
2022-11-06T23:03:22.868Z,12.01
2022-11-06T23:08:25.869Z,12.10
2022-11-06T23:13:28.396Z,12.06
2022-11-06T23:18:32.309Z,12.08
2022-11-06T23:23:34.826Z,12.06
2022-11-06T23:28:37.347Z,11.98
2022-11-06T23:33:41.498Z,12.06
2022-11-06T23:38:44.690Z,12.00
2022-11-06T23:43:50.660Z,12.05
2022-11-06T23:48:54.611Z,12.14
2022-11-06T23:53:57.137Z,12.13
2022-11-06T23:58:59.666Z,12.17
